sensor_id;sensor_type;location;lat;lon;timestamp;P1;durP1;ratioP1;P2;durP2;ratioP2
25327;SDS011;13279;51.300;12.394;2023-05-27T00:00:41;15.13;;;4.67;;
25327;SDS011;13279;51.300;12.394;2023-05-27T00:03:09;12.17;;;4.13;;
25327;SDS011;13279;51.300;12.394;2023-05-27T00:05:38;15.53;;;4.30;;
25327;SDS011;13279;51.300;12.394;2023-05-27T00:08:05;14.70;;;5.30;;
25327;SDS011;13279;51.300;12.394;2023-05-27T00:10:33;13.90;;;4.40;;
25327;SDS011;13279;51.300;12.394;2023-05-27T00:13:00;15.10;;;4.13;;
25327;SDS011;13279;51.300;12.394;2023-05-27T00:15:28;18.13;;;5.10;;
25327;SDS011;13279;51.300;12.394;2023-05-27T00:17:57;18.53;;;4.33;;
25327;SDS011;13279;51.300;12.394;2023-05-27T00:20:25;10.03;;;4.33;;
25327;SDS011;13279;51.300;12.394;2023-05-27T00:22:56;13.73;;;4.57;;
25327;SDS011;13279;51.300;12.394;2023-05-27T00:25:25;13.00;;;4.97;;
25327;SDS011;13279;51.300;12.394;2023-05-27T00:27:53;11.80;;;3.80;;
25327;SDS011;13279;51.300;12.394;2023-05-27T00:30:22;16.10;;;4.97;;
25327;SDS011;13279;51.300;12.394;2023-05-27T00:32:50;16.80;;;4.57;;
25327;SDS011;13279;51.300;12.394;2023-05-27T00:35:18;18.30;;;5.33;;
25327;SDS011;13279;51.300;12.394;2023-05-27T00:37:45;15.30;;;4.40;;
25327;SDS011;13279;51.300;12.394;2023-05-27T00:40:14;11.87;;;4.73;;
25327;SDS011;13279;51.300;12.394;2023-05-27T00:42:45;14.90;;;4.30;;
25327;SDS011;13279;51.300;12.394;2023-05-27T00:45:13;22.40;;;4.93;;
25327;SDS011;13279;51.300;12.394;2023-05-27T00:47:40;23.43;;;4.97;;
25327;SDS011;13279;51.300;12.394;2023-05-27T00:50:11;17.80;;;4.60;;
25327;SDS011;13279;51.300;12.394;2023-05-27T00:52:39;15.53;;;4.60;;
25327;SDS011;13279;51.300;12.394;2023-05-27T00:55:08;16.40;;;5.20;;
25327;SDS011;13279;51.300;12.394;2023-05-27T00:57:37;13.33;;;4.70;;
25327;SDS011;13279;51.300;12.394;2023-05-27T01:00:06;18.83;;;5.57;;
25327;SDS011;13279;51.300;12.394;2023-05-27T01:02:35;17.53;;;5.07;;
25327;SDS011;13279;51.300;12.394;2023-05-27T01:05:06;18.57;;;5.53;;
25327;SDS011;13279;51.300;12.394;2023-05-27T01:07:35;12.70;;;3.97;;
25327;SDS011;13279;51.300;12.394;2023-05-27T01:10:15;19.83;;;5.23;;
25327;SDS011;13279;51.300;12.394;2023-05-27T01:12:54;26.80;;;5.30;;
25327;SDS011;13279;51.300;12.394;2023-05-27T01:15:27;13.90;;;4.60;;
25327;SDS011;13279;51.300;12.394;2023-05-27T01:17:56;21.00;;;5.40;;
25327;SDS011;13279;51.300;12.394;2023-05-27T01:20:29;16.10;;;4.70;;
25327;SDS011;13279;51.300;12.394;2023-05-27T01:23:01;18.60;;;4.67;;
25327;SDS011;13279;51.300;12.394;2023-05-27T01:25:29;13.53;;;4.23;;
25327;SDS011;13279;51.300;12.394;2023-05-27T01:27:57;12.43;;;5.00;;
25327;SDS011;13279;51.300;12.394;2023-05-27T01:30:25;15.87;;;5.10;;
25327;SDS011;13279;51.300;12.394;2023-05-27T01:32:54;14.70;;;5.50;;
25327;SDS011;13279;51.300;12.394;2023-05-27T01:35:29;13.30;;;4.77;;
25327;SDS011;13279;51.300;12.394;2023-05-27T01:38:03;10.90;;;4.83;;
25327;SDS011;13279;51.300;12.394;2023-05-27T01:40:37;20.23;;;4.80;;
25327;SDS011;13279;51.300;12.394;2023-05-27T01:43:05;18.80;;;5.17;;
25327;SDS011;13279;51.300;12.394;2023-05-27T01:45:34;14.17;;;5.13;;
25327;SDS011;13279;51.300;12.394;2023-05-27T01:48:02;14.07;;;4.67;;
25327;SDS011;13279;51.300;12.394;2023-05-27T01:50:29;15.20;;;4.77;;
25327;SDS011;13279;51.300;12.394;2023-05-27T01:52:59;20.07;;;4.97;;
25327;SDS011;13279;51.300;12.394;2023-05-27T01:55:28;16.13;;;5.50;;
25327;SDS011;13279;51.300;12.394;2023-05-27T01:57:57;17.27;;;4.53;;
25327;SDS011;13279;51.300;12.394;2023-05-27T02:00:25;14.07;;;5.10;;
25327;SDS011;13279;51.300;12.394;2023-05-27T02:02:56;13.63;;;4.77;;
25327;SDS011;13279;51.300;12.394;2023-05-27T02:05:24;15.23;;;5.17;;
25327;SDS011;13279;51.300;12.394;2023-05-27T02:07:52;16.00;;;4.17;;
25327;SDS011;13279;51.300;12.394;2023-05-27T02:10:21;18.10;;;5.13;;
25327;SDS011;13279;51.300;12.394;2023-05-27T02:12:50;23.47;;;5.97;;
25327;SDS011;13279;51.300;12.394;2023-05-27T02:15:18;13.87;;;4.37;;
25327;SDS011;13279;51.300;12.394;2023-05-27T02:17:49;14.37;;;4.80;;
25327;SDS011;13279;51.300;12.394;2023-05-27T02:20:21;17.47;;;5.10;;
25327;SDS011;13279;51.300;12.394;2023-05-27T02:22:49;20.43;;;5.30;;
25327;SDS011;13279;51.300;12.394;2023-05-27T02:25:17;16.10;;;5.27;;
25327;SDS011;13279;51.300;12.394;2023-05-27T02:27:45;14.23;;;4.50;;
25327;SDS011;13279;51.300;12.394;2023-05-27T02:30:15;13.90;;;4.90;;
25327;SDS011;13279;51.300;12.394;2023-05-27T02:32:43;21.03;;;5.13;;
25327;SDS011;13279;51.300;12.394;2023-05-27T02:35:12;17.63;;;4.70;;
25327;SDS011;13279;51.300;12.394;2023-05-27T02:37:40;13.47;;;4.73;;
25327;SDS011;13279;51.300;12.394;2023-05-27T02:40:08;14.37;;;4.90;;
25327;SDS011;13279;51.300;12.394;2023-05-27T02:42:36;18.10;;;5.50;;
25327;SDS011;13279;51.300;12.394;2023-05-27T02:45:04;26.03;;;5.07;;
25327;SDS011;13279;51.300;12.394;2023-05-27T02:47:35;12.73;;;5.20;;
25327;SDS011;13279;51.300;12.394;2023-05-27T02:50:03;16.87;;;4.80;;
25327;SDS011;13279;51.300;12.394;2023-05-27T02:52:31;15.57;;;4.90;;
25327;SDS011;13279;51.300;12.394;2023-05-27T02:54:59;17.20;;;4.50;;
25327;SDS011;13279;51.300;12.394;2023-05-27T02:57:29;19.43;;;4.70;;
25327;SDS011;13279;51.300;12.394;2023-05-27T02:59:57;20.07;;;5.37;;
25327;SDS011;13279;51.300;12.394;2023-05-27T03:02:24;18.57;;;5.20;;
25327;SDS011;13279;51.300;12.394;2023-05-27T03:04:54;12.03;;;4.47;;
25327;SDS011;13279;51.300;12.394;2023-05-27T03:07:22;17.93;;;4.57;;
25327;SDS011;13279;51.300;12.394;2023-05-27T03:09:49;22.47;;;5.73;;
25327;SDS011;13279;51.300;12.394;2023-05-27T03:12:18;20.23;;;5.63;;
25327;SDS011;13279;51.300;12.394;2023-05-27T03:14:46;22.83;;;5.20;;
25327;SDS011;13279;51.300;12.394;2023-05-27T03:17:14;11.63;;;4.57;;
25327;SDS011;13279;51.300;12.394;2023-05-27T03:19:41;14.43;;;5.10;;
25327;SDS011;13279;51.300;12.394;2023-05-27T03:22:10;19.23;;;5.00;;
25327;SDS011;13279;51.300;12.394;2023-05-27T03:24:39;19.63;;;4.93;;
25327;SDS011;13279;51.300;12.394;2023-05-27T03:27:07;11.13;;;4.87;;
25327;SDS011;13279;51.300;12.394;2023-05-27T03:29:37;25.97;;;6.73;;
25327;SDS011;13279;51.300;12.394;2023-05-27T03:32:05;16.43;;;4.90;;
25327;SDS011;13279;51.300;12.394;2023-05-27T03:34:33;13.57;;;5.37;;
25327;SDS011;13279;51.300;12.394;2023-05-27T03:37:01;13.43;;;5.00;;
25327;SDS011;13279;51.300;12.394;2023-05-27T03:39:53;17.60;;;6.17;;
25327;SDS011;13279;51.300;12.394;2023-05-27T03:42:21;17.80;;;5.10;;
25327;SDS011;13279;51.300;12.394;2023-05-27T03:44:51;20.27;;;5.40;;
25327;SDS011;13279;51.300;12.394;2023-05-27T03:47:18;16.47;;;5.00;;
25327;SDS011;13279;51.300;12.394;2023-05-27T03:49:46;22.53;;;5.83;;
25327;SDS011;13279;51.300;12.394;2023-05-27T03:52:14;16.27;;;4.90;;
25327;SDS011;13279;51.300;12.394;2023-05-27T03:54:41;20.97;;;6.27;;
25327;SDS011;13279;51.300;12.394;2023-05-27T03:57:10;20.47;;;6.03;;
25327;SDS011;13279;51.300;12.394;2023-05-27T03:59:38;19.43;;;5.80;;
25327;SDS011;13279;51.300;12.394;2023-05-27T04:02:08;18.03;;;5.53;;
25327;SDS011;13279;51.300;12.394;2023-05-27T04:04:36;16.97;;;4.77;;
25327;SDS011;13279;51.300;12.394;2023-05-27T04:07:05;18.27;;;5.33;;
25327;SDS011;13279;51.300;12.394;2023-05-27T04:09:33;15.53;;;4.80;;
25327;SDS011;13279;51.300;12.394;2023-05-27T04:12:00;14.03;;;5.20;;
25327;SDS011;13279;51.300;12.394;2023-05-27T04:14:29;14.07;;;4.90;;
25327;SDS011;13279;51.300;12.394;2023-05-27T04:16:57;17.30;;;5.23;;
25327;SDS011;13279;51.300;12.394;2023-05-27T04:19:25;20.10;;;4.87;;
25327;SDS011;13279;51.300;12.394;2023-05-27T04:21:52;15.43;;;5.07;;
25327;SDS011;13279;51.300;12.394;2023-05-27T04:24:20;13.43;;;4.60;;
25327;SDS011;13279;51.300;12.394;2023-05-27T04:26:47;20.27;;;5.47;;
25327;SDS011;13279;51.300;12.394;2023-05-27T04:29:16;18.20;;;5.57;;
25327;SDS011;13279;51.300;12.394;2023-05-27T04:31:45;23.03;;;5.80;;
25327;SDS011;13279;51.300;12.394;2023-05-27T04:34:18;17.93;;;5.03;;
25327;SDS011;13279;51.300;12.394;2023-05-27T04:36:46;19.77;;;5.30;;
25327;SDS011;13279;51.300;12.394;2023-05-27T04:39:17;17.07;;;5.77;;
25327;SDS011;13279;51.300;12.394;2023-05-27T04:41:45;15.07;;;4.87;;
25327;SDS011;13279;51.300;12.394;2023-05-27T04:44:31;15.30;;;5.47;;
25327;SDS011;13279;51.300;12.394;2023-05-27T04:47:02;13.80;;;5.33;;
25327;SDS011;13279;51.300;12.394;2023-05-27T04:49:30;17.37;;;5.17;;
25327;SDS011;13279;51.300;12.394;2023-05-27T04:52:02;17.30;;;4.83;;
25327;SDS011;13279;51.300;12.394;2023-05-27T04:54:33;13.23;;;5.53;;
25327;SDS011;13279;51.300;12.394;2023-05-27T04:57:05;14.33;;;5.20;;
25327;SDS011;13279;51.300;12.394;2023-05-27T04:59:35;13.30;;;4.53;;
25327;SDS011;13279;51.300;12.394;2023-05-27T05:02:26;19.67;;;5.93;;
25327;SDS011;13279;51.300;12.394;2023-05-27T05:05:08;12.87;;;5.47;;
25327;SDS011;13279;51.300;12.394;2023-05-27T05:07:40;22.13;;;5.40;;
25327;SDS011;13279;51.300;12.394;2023-05-27T05:10:11;16.97;;;4.70;;
25327;SDS011;13279;51.300;12.394;2023-05-27T05:12:46;19.37;;;4.87;;
25327;SDS011;13279;51.300;12.394;2023-05-27T05:15:15;16.27;;;5.70;;
25327;SDS011;13279;51.300;12.394;2023-05-27T05:17:44;17.97;;;5.30;;
25327;SDS011;13279;51.300;12.394;2023-05-27T05:20:14;19.80;;;5.33;;
25327;SDS011;13279;51.300;12.394;2023-05-27T05:22:44;17.27;;;5.50;;
25327;SDS011;13279;51.300;12.394;2023-05-27T05:25:11;16.27;;;5.03;;
25327;SDS011;13279;51.300;12.394;2023-05-27T05:27:45;17.03;;;5.93;;
25327;SDS011;13279;51.300;12.394;2023-05-27T05:30:13;15.23;;;5.30;;
25327;SDS011;13279;51.300;12.394;2023-05-27T05:32:41;13.03;;;4.73;;
25327;SDS011;13279;51.300;12.394;2023-05-27T05:35:11;20.33;;;4.73;;
25327;SDS011;13279;51.300;12.394;2023-05-27T05:37:47;13.77;;;4.53;;
25327;SDS011;13279;51.300;12.394;2023-05-27T05:40:17;17.43;;;5.30;;
25327;SDS011;13279;51.300;12.394;2023-05-27T05:43:01;18.90;;;5.27;;
25327;SDS011;13279;51.300;12.394;2023-05-27T05:45:30;20.90;;;5.20;;
25327;SDS011;13279;51.300;12.394;2023-05-27T05:47:59;21.37;;;4.60;;
25327;SDS011;13279;51.300;12.394;2023-05-27T05:50:29;18.23;;;6.07;;
25327;SDS011;13279;51.300;12.394;2023-05-27T05:52:59;16.60;;;5.03;;
25327;SDS011;13279;51.300;12.394;2023-05-27T05:55:27;12.67;;;5.47;;
25327;SDS011;13279;51.300;12.394;2023-05-27T05:57:57;13.00;;;4.93;;
25327;SDS011;13279;51.300;12.394;2023-05-27T06:00:26;19.80;;;4.87;;
25327;SDS011;13279;51.300;12.394;2023-05-27T06:03:05;21.93;;;6.27;;
25327;SDS011;13279;51.300;12.394;2023-05-27T06:05:43;14.63;;;5.57;;
25327;SDS011;13279;51.300;12.394;2023-05-27T06:08:11;16.93;;;4.90;;
25327;SDS011;13279;51.300;12.394;2023-05-27T06:10:49;25.47;;;5.17;;
25327;SDS011;13279;51.300;12.394;2023-05-27T06:13:17;10.33;;;4.57;;
25327;SDS011;13279;51.300;12.394;2023-05-27T06:15:48;15.53;;;4.27;;
25327;SDS011;13279;51.300;12.394;2023-05-27T06:18:17;12.83;;;4.50;;
25327;SDS011;13279;51.300;12.394;2023-05-27T06:20:45;19.73;;;4.83;;
25327;SDS011;13279;51.300;12.394;2023-05-27T06:23:14;15.57;;;4.20;;
25327;SDS011;13279;51.300;12.394;2023-05-27T06:26:02;16.20;;;3.70;;
25327;SDS011;13279;51.300;12.394;2023-05-27T06:28:36;12.83;;;3.67;;
25327;SDS011;13279;51.300;12.394;2023-05-27T06:31:04;12.47;;;3.77;;
25327;SDS011;13279;51.300;12.394;2023-05-27T06:33:33;13.50;;;3.40;;
25327;SDS011;13279;51.300;12.394;2023-05-27T06:36:02;13.73;;;3.67;;
25327;SDS011;13279;51.300;12.394;2023-05-27T06:38:30;13.87;;;4.37;;
25327;SDS011;13279;51.300;12.394;2023-05-27T06:40:58;15.77;;;3.90;;
25327;SDS011;13279;51.300;12.394;2023-05-27T06:43:26;11.33;;;3.80;;
25327;SDS011;13279;51.300;12.394;2023-05-27T06:46:17;10.50;;;3.07;;
25327;SDS011;13279;51.300;12.394;2023-05-27T06:49:03;15.67;;;3.43;;
25327;SDS011;13279;51.300;12.394;2023-05-27T06:51:32;14.30;;;3.13;;
25327;SDS011;13279;51.300;12.394;2023-05-27T06:54:02;17.77;;;5.03;;
25327;SDS011;13279;51.300;12.394;2023-05-27T06:56:40;21.23;;;4.60;;
25327;SDS011;13279;51.300;12.394;2023-05-27T06:59:40;17.07;;;4.70;;
25327;SDS011;13279;51.300;12.394;2023-05-27T07:02:12;22.20;;;3.73;;
25327;SDS011;13279;51.300;12.394;2023-05-27T07:05:00;15.43;;;3.53;;
25327;SDS011;13279;51.300;12.394;2023-05-27T07:07:28;9.47;;;3.40;;
25327;SDS011;13279;51.300;12.394;2023-05-27T07:09:56;11.93;;;3.33;;
25327;SDS011;13279;51.300;12.394;2023-05-27T07:12:24;10.57;;;3.27;;
25327;SDS011;13279;51.300;12.394;2023-05-27T07:14:55;13.97;;;3.67;;
25327;SDS011;13279;51.300;12.394;2023-05-27T07:17:25;17.10;;;3.67;;
25327;SDS011;13279;51.300;12.394;2023-05-27T07:19:52;16.00;;;3.77;;
25327;SDS011;13279;51.300;12.394;2023-05-27T07:22:22;12.53;;;3.60;;
25327;SDS011;13279;51.300;12.394;2023-05-27T07:24:51;10.20;;;3.40;;
25327;SDS011;13279;51.300;12.394;2023-05-27T07:27:20;17.10;;;3.90;;
25327;SDS011;13279;51.300;12.394;2023-05-27T07:29:56;18.37;;;3.60;;
25327;SDS011;13279;51.300;12.394;2023-05-27T07:32:37;9.60;;;3.00;;
25327;SDS011;13279;51.300;12.394;2023-05-27T07:35:05;12.70;;;3.20;;
25327;SDS011;13279;51.300;12.394;2023-05-27T07:37:34;14.70;;;3.77;;
25327;SDS011;13279;51.300;12.394;2023-05-27T07:40:02;10.50;;;3.00;;
25327;SDS011;13279;51.300;12.394;2023-05-27T07:42:33;12.13;;;3.33;;
25327;SDS011;13279;51.300;12.394;2023-05-27T07:45:01;14.60;;;3.77;;
25327;SDS011;13279;51.300;12.394;2023-05-27T07:47:29;11.90;;;3.10;;
25327;SDS011;13279;51.300;12.394;2023-05-27T07:49:56;9.20;;;2.90;;
25327;SDS011;13279;51.300;12.394;2023-05-27T07:52:27;16.60;;;3.47;;
25327;SDS011;13279;51.300;12.394;2023-05-27T07:54:56;11.63;;;3.47;;
25327;SDS011;13279;51.300;12.394;2023-05-27T07:57:24;11.30;;;2.93;;
25327;SDS011;13279;51.300;12.394;2023-05-27T07:59:53;9.97;;;2.93;;
25327;SDS011;13279;51.300;12.394;2023-05-27T08:02:25;13.53;;;3.33;;
25327;SDS011;13279;51.300;12.394;2023-05-27T08:04:53;10.47;;;2.70;;
25327;SDS011;13279;51.300;12.394;2023-05-27T08:07:39;10.37;;;3.20;;
25327;SDS011;13279;51.300;12.394;2023-05-27T08:10:23;11.63;;;3.07;;
25327;SDS011;13279;51.300;12.394;2023-05-27T08:13:21;10.03;;;2.60;;
25327;SDS011;13279;51.300;12.394;2023-05-27T08:16:14;8.83;;;2.60;;
25327;SDS011;13279;51.300;12.394;2023-05-27T08:18:46;16.03;;;3.17;;
25327;SDS011;13279;51.300;12.394;2023-05-27T08:21:33;9.70;;;2.77;;
25327;SDS011;13279;51.300;12.394;2023-05-27T08:24:20;11.57;;;3.17;;
25327;SDS011;13279;51.300;12.394;2023-05-27T08:27:12;8.93;;;3.00;;
25327;SDS011;13279;51.300;12.394;2023-05-27T08:30:02;11.63;;;2.73;;
25327;SDS011;13279;51.300;12.394;2023-05-27T08:32:39;15.50;;;3.17;;
25327;SDS011;13279;51.300;12.394;2023-05-27T08:35:07;10.67;;;3.03;;
25327;SDS011;13279;51.300;12.394;2023-05-27T08:37:35;12.90;;;2.97;;
25327;SDS011;13279;51.300;12.394;2023-05-27T08:40:03;12.37;;;2.40;;
25327;SDS011;13279;51.300;12.394;2023-05-27T08:42:41;11.87;;;2.57;;
25327;SDS011;13279;51.300;12.394;2023-05-27T08:45:11;10.87;;;2.83;;
25327;SDS011;13279;51.300;12.394;2023-05-27T08:47:39;10.73;;;3.20;;
25327;SDS011;13279;51.300;12.394;2023-05-27T08:50:11;10.37;;;2.83;;
25327;SDS011;13279;51.300;12.394;2023-05-27T08:52:42;8.77;;;2.77;;
25327;SDS011;13279;51.300;12.394;2023-05-27T08:55:14;8.43;;;3.17;;
25327;SDS011;13279;51.300;12.394;2023-05-27T08:57:46;7.23;;;2.57;;
25327;SDS011;13279;51.300;12.394;2023-05-27T09:00:17;7.70;;;2.73;;
25327;SDS011;13279;51.300;12.394;2023-05-27T09:02:45;9.80;;;2.33;;
25327;SDS011;13279;51.300;12.394;2023-05-27T09:05:14;15.50;;;3.13;;
25327;SDS011;13279;51.300;12.394;2023-05-27T09:07:43;9.03;;;2.80;;
25327;SDS011;13279;51.300;12.394;2023-05-27T09:10:11;5.07;;;2.60;;
25327;SDS011;13279;51.300;12.394;2023-05-27T09:12:41;9.93;;;2.93;;
25327;SDS011;13279;51.300;12.394;2023-05-27T09:15:12;12.53;;;2.80;;
25327;SDS011;13279;51.300;12.394;2023-05-27T09:17:40;8.80;;;2.90;;
25327;SDS011;13279;51.300;12.394;2023-05-27T09:20:08;11.83;;;2.90;;
25327;SDS011;13279;51.300;12.394;2023-05-27T09:22:36;6.23;;;2.80;;
25327;SDS011;13279;51.300;12.394;2023-05-27T09:25:05;8.00;;;2.67;;
25327;SDS011;13279;51.300;12.394;2023-05-27T09:27:33;8.40;;;2.73;;
25327;SDS011;13279;51.300;12.394;2023-05-27T09:30:05;7.07;;;2.87;;
25327;SDS011;13279;51.300;12.394;2023-05-27T09:32:35;7.73;;;2.73;;
25327;SDS011;13279;51.300;12.394;2023-05-27T09:35:05;8.70;;;2.67;;
25327;SDS011;13279;51.300;12.394;2023-05-27T09:37:33;15.73;;;3.17;;
25327;SDS011;13279;51.300;12.394;2023-05-27T09:40:04;14.73;;;3.27;;
25327;SDS011;13279;51.300;12.394;2023-05-27T09:42:42;8.33;;;2.70;;
25327;SDS011;13279;51.300;12.394;2023-05-27T09:45:11;7.20;;;2.70;;
25327;SDS011;13279;51.300;12.394;2023-05-27T09:47:41;7.57;;;3.10;;
25327;SDS011;13279;51.300;12.394;2023-05-27T09:50:13;14.43;;;3.10;;
25327;SDS011;13279;51.300;12.394;2023-05-27T09:52:43;8.97;;;3.33;;
25327;SDS011;13279;51.300;12.394;2023-05-27T09:55:12;7.17;;;2.67;;
25327;SDS011;13279;51.300;12.394;2023-05-27T09:57:39;10.90;;;2.70;;
25327;SDS011;13279;51.300;12.394;2023-05-27T10:00:08;8.33;;;2.40;;
25327;SDS011;13279;51.300;12.394;2023-05-27T10:02:44;7.13;;;2.63;;
25327;SDS011;13279;51.300;12.394;2023-05-27T10:05:13;7.47;;;2.43;;
25327;SDS011;13279;51.300;12.394;2023-05-27T10:07:42;10.03;;;2.83;;
25327;SDS011;13279;51.300;12.394;2023-05-27T10:10:12;7.13;;;2.77;;
25327;SDS011;13279;51.300;12.394;2023-05-27T10:12:47;12.23;;;3.17;;
25327;SDS011;13279;51.300;12.394;2023-05-27T10:15:23;9.57;;;3.37;;
25327;SDS011;13279;51.300;12.394;2023-05-27T10:17:54;10.83;;;3.07;;
25327;SDS011;13279;51.300;12.394;2023-05-27T10:20:26;9.97;;;2.97;;
25327;SDS011;13279;51.300;12.394;2023-05-27T10:22:55;8.20;;;2.30;;
25327;SDS011;13279;51.300;12.394;2023-05-27T10:25:28;5.73;;;2.57;;
25327;SDS011;13279;51.300;12.394;2023-05-27T10:28:02;8.03;;;2.40;;
25327;SDS011;13279;51.300;12.394;2023-05-27T10:30:30;8.93;;;2.93;;
25327;SDS011;13279;51.300;12.394;2023-05-27T10:33:11;10.40;;;2.50;;
25327;SDS011;13279;51.300;12.394;2023-05-27T10:35:39;6.90;;;2.60;;
25327;SDS011;13279;51.300;12.394;2023-05-27T10:38:14;8.93;;;2.87;;
25327;SDS011;13279;51.300;12.394;2023-05-27T10:40:43;8.50;;;3.47;;
25327;SDS011;13279;51.300;12.394;2023-05-27T10:43:15;13.10;;;2.63;;
25327;SDS011;13279;51.300;12.394;2023-05-27T10:45:43;9.83;;;2.90;;
25327;SDS011;13279;51.300;12.394;2023-05-27T10:48:17;7.63;;;2.40;;
25327;SDS011;13279;51.300;12.394;2023-05-27T10:50:51;9.27;;;2.43;;
25327;SDS011;13279;51.300;12.394;2023-05-27T10:53:19;9.13;;;2.40;;
25327;SDS011;13279;51.300;12.394;2023-05-27T10:55:47;8.87;;;2.50;;
25327;SDS011;13279;51.300;12.394;2023-05-27T10:58:17;8.60;;;2.50;;
25327;SDS011;13279;51.300;12.394;2023-05-27T11:00:45;6.60;;;2.10;;
25327;SDS011;13279;51.300;12.394;2023-05-27T11:03:17;9.37;;;3.40;;
25327;SDS011;13279;51.300;12.394;2023-05-27T11:05:59;12.10;;;3.10;;
25327;SDS011;13279;51.300;12.394;2023-05-27T11:08:28;10.77;;;3.03;;
25327;SDS011;13279;51.300;12.394;2023-05-27T11:11:02;9.73;;;2.40;;
25327;SDS011;13279;51.300;12.394;2023-05-27T11:13:33;9.53;;;2.73;;
25327;SDS011;13279;51.300;12.394;2023-05-27T11:16:02;13.07;;;3.17;;
25327;SDS011;13279;51.300;12.394;2023-05-27T11:18:38;7.77;;;2.67;;
25327;SDS011;13279;51.300;12.394;2023-05-27T11:21:08;8.70;;;2.60;;
25327;SDS011;13279;51.300;12.394;2023-05-27T11:23:37;8.33;;;2.57;;
25327;SDS011;13279;51.300;12.394;2023-05-27T11:26:15;5.97;;;2.53;;
25327;SDS011;13279;51.300;12.394;2023-05-27T11:28:47;14.10;;;2.60;;
25327;SDS011;13279;51.300;12.394;2023-05-27T11:31:16;7.33;;;2.63;;
25327;SDS011;13279;51.300;12.394;2023-05-27T11:33:46;6.40;;;2.27;;
25327;SDS011;13279;51.300;12.394;2023-05-27T11:36:16;7.30;;;2.90;;
25327;SDS011;13279;51.300;12.394;2023-05-27T11:38:49;8.10;;;2.50;;
25327;SDS011;13279;51.300;12.394;2023-05-27T11:41:21;9.13;;;2.70;;
25327;SDS011;13279;51.300;12.394;2023-05-27T11:43:50;6.33;;;2.77;;
25327;SDS011;13279;51.300;12.394;2023-05-27T11:46:20;5.43;;;2.57;;
25327;SDS011;13279;51.300;12.394;2023-05-27T11:48:50;5.47;;;3.23;;
25327;SDS011;13279;51.300;12.394;2023-05-27T11:51:25;5.50;;;2.60;;
25327;SDS011;13279;51.300;12.394;2023-05-27T11:53:55;6.53;;;2.43;;
25327;SDS011;13279;51.300;12.394;2023-05-27T11:56:24;6.47;;;2.70;;
25327;SDS011;13279;51.300;12.394;2023-05-27T11:58:52;10.13;;;2.97;;
25327;SDS011;13279;51.300;12.394;2023-05-27T12:01:19;5.97;;;2.60;;
25327;SDS011;13279;51.300;12.394;2023-05-27T12:03:47;8.33;;;3.00;;
25327;SDS011;13279;51.300;12.394;2023-05-27T12:06:15;11.37;;;3.10;;
25327;SDS011;13279;51.300;12.394;2023-05-27T12:08:44;7.10;;;3.20;;
25327;SDS011;13279;51.300;12.394;2023-05-27T12:11:11;12.53;;;3.10;;
25327;SDS011;13279;51.300;12.394;2023-05-27T12:13:39;12.93;;;2.80;;
25327;SDS011;13279;51.300;12.394;2023-05-27T12:16:06;5.80;;;2.53;;
25327;SDS011;13279;51.300;12.394;2023-05-27T12:18:33;7.40;;;2.60;;
25327;SDS011;13279;51.300;12.394;2023-05-27T12:21:00;6.77;;;2.40;;
25327;SDS011;13279;51.300;12.394;2023-05-27T12:23:30;8.57;;;3.13;;
25327;SDS011;13279;51.300;12.394;2023-05-27T12:25:57;7.40;;;2.80;;
25327;SDS011;13279;51.300;12.394;2023-05-27T12:28:25;12.10;;;2.90;;
25327;SDS011;13279;51.300;12.394;2023-05-27T12:30:52;9.30;;;3.07;;
25327;SDS011;13279;51.300;12.394;2023-05-27T12:33:20;6.57;;;2.77;;
25327;SDS011;13279;51.300;12.394;2023-05-27T12:35:47;8.20;;;2.93;;
25327;SDS011;13279;51.300;12.394;2023-05-27T12:38:15;9.10;;;2.50;;
25327;SDS011;13279;51.300;12.394;2023-05-27T12:40:43;8.60;;;2.70;;
25327;SDS011;13279;51.300;12.394;2023-05-27T12:43:11;7.17;;;2.60;;
25327;SDS011;13279;51.300;12.394;2023-05-27T12:45:39;7.30;;;2.70;;
25327;SDS011;13279;51.300;12.394;2023-05-27T12:48:06;6.20;;;2.80;;
25327;SDS011;13279;51.300;12.394;2023-05-27T12:50:34;5.13;;;2.87;;
25327;SDS011;13279;51.300;12.394;2023-05-27T12:53:01;6.17;;;2.50;;
25327;SDS011;13279;51.300;12.394;2023-05-27T12:55:28;9.43;;;2.30;;
25327;SDS011;13279;51.300;12.394;2023-05-27T12:57:58;7.67;;;2.60;;
25327;SDS011;13279;51.300;12.394;2023-05-27T13:00:25;6.00;;;2.73;;
25327;SDS011;13279;51.300;12.394;2023-05-27T13:02:54;4.17;;;1.93;;
25327;SDS011;13279;51.300;12.394;2023-05-27T13:05:21;8.37;;;2.60;;
25327;SDS011;13279;51.300;12.394;2023-05-27T13:07:52;6.90;;;2.23;;
25327;SDS011;13279;51.300;12.394;2023-05-27T13:10:22;7.87;;;2.60;;
25327;SDS011;13279;51.300;12.394;2023-05-27T13:12:49;3.73;;;2.33;;
25327;SDS011;13279;51.300;12.394;2023-05-27T13:15:19;7.37;;;2.30;;
25327;SDS011;13279;51.300;12.394;2023-05-27T13:17:48;7.87;;;2.80;;
25327;SDS011;13279;51.300;12.394;2023-05-27T13:20:16;4.87;;;2.13;;
25327;SDS011;13279;51.300;12.394;2023-05-27T13:22:45;7.43;;;2.60;;
25327;SDS011;13279;51.300;12.394;2023-05-27T13:25:13;4.80;;;2.00;;
25327;SDS011;13279;51.300;12.394;2023-05-27T13:27:42;5.05;;;2.58;;
25327;SDS011;13279;51.300;12.394;2023-05-27T13:30:11;10.82;;;2.60;;
25327;SDS011;13279;51.300;12.394;2023-05-27T13:32:41;9.93;;;3.03;;
25327;SDS011;13279;51.300;12.394;2023-05-27T13:35:08;4.25;;;2.10;;
25327;SDS011;13279;51.300;12.394;2023-05-27T13:37:37;8.25;;;2.47;;
25327;SDS011;13279;51.300;12.394;2023-05-27T13:40:05;4.03;;;2.08;;
25327;SDS011;13279;51.300;12.394;2023-05-27T13:42:33;8.90;;;2.42;;
25327;SDS011;13279;51.300;12.394;2023-05-27T13:45:01;4.78;;;2.40;;
25327;SDS011;13279;51.300;12.394;2023-05-27T13:47:29;6.75;;;2.58;;
25327;SDS011;13279;51.300;12.394;2023-05-27T13:49:57;3.83;;;2.20;;
25327;SDS011;13279;51.300;12.394;2023-05-27T13:52:25;4.03;;;1.95;;
25327;SDS011;13279;51.300;12.394;2023-05-27T13:54:53;8.00;;;3.13;;
25327;SDS011;13279;51.300;12.394;2023-05-27T13:57:20;5.47;;;2.15;;
25327;SDS011;13279;51.300;12.394;2023-05-27T13:59:47;7.25;;;2.25;;
25327;SDS011;13279;51.300;12.394;2023-05-27T14:02:15;4.25;;;2.00;;
25327;SDS011;13279;51.300;12.394;2023-05-27T14:04:43;6.15;;;2.40;;
25327;SDS011;13279;51.300;12.394;2023-05-27T14:07:12;10.55;;;2.92;;
25327;SDS011;13279;51.300;12.394;2023-05-27T14:09:39;9.80;;;2.50;;
25327;SDS011;13279;51.300;12.394;2023-05-27T14:12:07;5.50;;;2.10;;
25327;SDS011;13279;51.300;12.394;2023-05-27T14:14:34;4.97;;;2.42;;
25327;SDS011;13279;51.300;12.394;2023-05-27T14:17:02;6.85;;;2.25;;
25327;SDS011;13279;51.300;12.394;2023-05-27T14:19:29;3.47;;;2.22;;
25327;SDS011;13279;51.300;12.394;2023-05-27T14:21:57;4.32;;;2.05;;
25327;SDS011;13279;51.300;12.394;2023-05-27T14:24:25;9.93;;;2.80;;
25327;SDS011;13279;51.300;12.394;2023-05-27T14:26:53;4.13;;;2.05;;
25327;SDS011;13279;51.300;12.394;2023-05-27T14:29:22;4.85;;;2.20;;
25327;SDS011;13279;51.300;12.394;2023-05-27T14:31:50;4.25;;;2.22;;
25327;SDS011;13279;51.300;12.394;2023-05-27T14:34:17;7.43;;;2.55;;
25327;SDS011;13279;51.300;12.394;2023-05-27T14:36:45;2.97;;;2.40;;
25327;SDS011;13279;51.300;12.394;2023-05-27T14:39:12;4.75;;;2.00;;
25327;SDS011;13279;51.300;12.394;2023-05-27T14:41:42;3.85;;;1.85;;
25327;SDS011;13279;51.300;12.394;2023-05-27T14:44:09;5.30;;;2.28;;